Time;durP1;ratioP1;P1;durP2;ratioP2;P2;SDS_P1;SDS_P2;PMS_P1;PMS_P2;Temp;Humidity;BMP_temperature;BMP_pressure;BME280_temperature;BME280_humidity;BME280_pressure;Samples;Min_cycle;Max_cycle;Signal;HPM_P1;HPM_P2
2022/11/23 00:02:17;;;;;;;;;;;;;;;;;;5031988;28;19925;-70
2022/11/23 00:04:43;;;;;;;;;;;;;;;;;;5032384;28;19917;-69
2022/11/23 00:07:09;;;;;;;;;;;;;;;;;;5031917;28;19916;-69
2022/11/23 00:09:35;;;;;;;;;;;;;;;;;;5031559;28;19913;-70
2022/11/23 00:12:01;;;;;;;;;;;;;;;;;;5031346;28;19909;-69
2022/11/23 00:14:27;;;;;;;;;;;;;;;;;;5032279;28;19909;-69
2022/11/23 00:16:53;;;;;;;;;;;;;;;;;;5031790;28;20294;-69
2022/11/23 00:19:18;;;;;;;;;;;;;;;;;;5031985;28;20011;-69
2022/11/23 00:21:44;;;;;;;;;;;;;;;;;;5032050;28;19944;-70
2022/11/23 00:24:10;;;;;;;;;;;;;;;;;;5030175;28;20332;-69
2022/11/23 00:26:36;;;;;;;;;;;;;;;;;;5032337;28;19920;-69
2022/11/23 00:29:02;;;;;;;;;;;;;;;;;;5035789;28;20441;-70
2022/11/23 00:31:28;;;;;;;;;;;;;;;;;;5031063;28;19936;-70
2022/11/23 00:33:54;;;;;;;;;;;;;;;;;;5031933;28;20393;-69
2022/11/23 00:36:20;;;;;;;;;;;;;;;;;;5031797;28;19916;-70
2022/11/23 00:38:46;;;;;;;;;;;;;;;;;;5031524;28;19948;-70
2022/11/23 00:41:11;;;;;;;;;;;;;;;;;;5030053;28;19914;-70
2022/11/23 00:43:37;;;;;;;;;;;;;;;;;;5032222;28;19936;-70
2022/11/23 00:46:03;;;;;;;;;;;;;;;;;;5032322;28;19909;-70
2022/11/23 00:48:29;;;;;;;;;;;;;;;;;;5031774;28;19920;-69
2022/11/23 00:50:55;;;;;;;;;;;;;;;;;;5031957;28;19913;-70
2022/11/23 00:53:21;;;;;;;;;;;;;;;;;;5031978;28;20362;-71
2022/11/23 00:55:47;;;;;;;;;;;;;;;;;;5031715;28;19936;-71
2022/11/23 00:58:13;;;;;;;;;;;;;;;;;;5032259;28;20040;-71
2022/11/23 01:00:39;;;;;;;;;;;;;;;;;;5031763;28;20262;-70
2022/11/23 01:03:04;;;;;;;;;;;;;;;;;;5031872;28;19913;-71
2022/11/23 01:05:30;;;;;;;;;;;;;;;;;;5031431;28;20296;-71
2022/11/23 01:07:56;;;;;;;;;;;;;;;;;;5031314;28;19916;-71
2022/11/23 01:10:22;;;;;;;;;;;;;;;;;;5030862;28;20706;-71
2022/11/23 01:12:48;;;;;;;;;;;;;;;;;;5031918;28;19952;-70
2022/11/23 01:15:14;;;;;;;;;;;;;;;;;;5031310;28;19913;-69
2022/11/23 01:17:40;;;;;;;;;;;;;;;;;;5031688;28;19921;-70
2022/11/23 01:20:06;;;;;;;;;;;;;;;;;;5030878;28;20071;-70
2022/11/23 01:22:32;;;;;;;;;;;;;;;;;;5030768;28;19917;-70
2022/11/23 01:24:58;;;;;;;;;;;;;;;;;;5031599;28;19916;-70
2022/11/23 01:27:24;;;;;;;;;;;;;;;;;;5035149;28;19996;-72
2022/11/23 01:29:50;;;;;;;;;;;;;;;;;;5031486;28;20353;-71
2022/11/23 01:32:15;;;;;;;;;;;;;;;;;;5030888;28;19967;-71
2022/11/23 01:34:41;;;;;;;;;;;;;;;;;;5031062;28;19920;-72
2022/11/23 01:37:07;;;;;;;;;;;;;;;;;;5031701;28;19913;-71
2022/11/23 01:39:33;;;;;;;;;;;;;;;;;;5030460;28;20259;-72
2022/11/23 01:41:59;;;;;;;;;;;;;;;;;;5030789;28;19916;-71
2022/11/23 01:44:25;;;;;;;;;;;;;;;;;;5030030;28;20023;-71
2022/11/23 01:46:51;;;;;;;;;;;;;;;;;;5030971;28;20433;-71
2022/11/23 01:49:17;;;;;;;;;;;;;;;;;;5030799;28;20253;-70
2022/11/23 01:51:43;;;;;;;;;;;;;;;;;;5030537;28;19913;-70
2022/11/23 01:54:09;;;;;;;;;;;;;;;;;;5031031;28;19909;-70
2022/11/23 01:56:35;;;;;;;;;;;;;;;;;;5030748;28;19920;-70
2022/11/23 01:59:01;;;;;;;;;;;;;;;;;;5030700;28;20290;-69
2022/11/23 02:01:26;;;;;;;;;;;;;;;;;;5030633;28;19935;-70
2022/11/23 02:03:52;;;;;;;;;;;;;;;;;;5030596;28;19963;-69
2022/11/23 02:06:18;;;;;;;;;;;;;;;;;;5030375;28;19920;-70
2022/11/23 02:08:44;;;;;;;;;;;;;;;;;;5029819;28;19920;-69
2022/11/23 02:11:10;;;;;;;;;;;;;;;;;;5030429;28;19909;-70
2022/11/23 02:13:36;;;;;;;;;;;;;;;;;;5030177;28;20007;-70
2022/11/23 02:16:02;;;;;;;;;;;;;;;;;;5030153;28;20313;-71
2022/11/23 02:18:28;;;;;;;;;;;;;;;;;;5030662;28;19917;-70
2022/11/23 02:20:53;;;;;;;;;;;;;;;;;;5029954;28;19913;-71
2022/11/23 02:23:19;;;;;;;;;;;;;;;;;;5029351;28;19925;-70
2022/11/23 02:25:45;;;;;;;;;;;;;;;;;;5030365;28;19912;-70
2022/11/23 02:28:11;;;;;;;;;;;;;;;;;;5034514;28;19959;-71
2022/11/23 02:30:37;;;;;;;;;;;;;;;;;;5030286;28;19996;-72
2022/11/23 02:33:03;;;;;;;;;;;;;;;;;;5030151;28;19913;-69
2022/11/23 02:35:29;;;;;;;;;;;;;;;;;;5029779;28;20297;-71
2022/11/23 02:37:55;;;;;;;;;;;;;;;;;;5029797;28;19921;-70
2022/11/23 02:40:21;;;;;;;;;;;;;;;;;;5030084;28;20012;-71
2022/11/23 02:42:47;;;;;;;;;;;;;;;;;;5030417;28;19964;-72
2022/11/23 02:45:13;;;;;;;;;;;;;;;;;;5030898;28;19909;-72
2022/11/23 02:47:39;;;;;;;;;;;;;;;;;;5029908;28;20400;-69
2022/11/23 02:50:05;;;;;;;;;;;;;;;;;;5028355;28;20275;-70
2022/11/23 02:52:30;;;;;;;;;;;;;;;;;;5029492;28;19913;-70
2022/11/23 02:54:56;;;;;;;;;;;;;;;;;;5029813;28;20346;-69
2022/11/23 02:57:22;;;;;;;;;;;;;;;;;;5029567;28;19947;-69
2022/11/23 02:59:48;;;;;;;;;;;;;;;;;;5029787;28;20439;-69
2022/11/23 03:02:14;;;;;;;;;;;;;;;;;;5029527;28;19909;-69
2022/11/23 03:04:40;;;;;;;;;;;;;;;;;;5030009;28;20408;-69
2022/11/23 03:07:06;;;;;;;;;;;;;;;;;;5029304;28;20703;-67
2022/11/23 03:09:32;;;;;;;;;;;;;;;;;;5029822;28;19928;-68
2022/11/23 03:11:58;;;;;;;;;;;;;;;;;;5029864;28;19909;-69
2022/11/23 03:14:24;;;;;;;;;;;;;;;;;;5029332;28;19995;-68
2022/11/23 03:16:50;;;;;;;;;;;;;;;;;;5029851;28;19909;-68
2022/11/23 03:19:16;;;;;;;;;;;;;;;;;;5029454;28;19972;-69
2022/11/23 03:21:42;;;;;;;;;;;;;;;;;;5029417;28;20020;-70
2022/11/23 03:24:08;;;;;;;;;;;;;;;;;;5029480;28;19922;-70
2022/11/23 03:26:34;;;;;;;;;;;;;;;;;;5030712;28;20393;-69
2022/11/23 03:28:59;;;;;;;;;;;;;;;;;;5032213;28;19917;-69
2022/11/23 03:31:25;;;;;;;;;;;;;;;;;;5029898;28;20432;-69
2022/11/23 03:33:51;;;;;;;;;;;;;;;;;;5029589;28;19909;-70
2022/11/23 03:36:17;;;;;;;;;;;;;;;;;;5028790;28;19963;-69
2022/11/23 03:38:43;;;;;;;;;;;;;;;;;;5029279;28;19928;-68
2022/11/23 03:41:09;;;;;;;;;;;;;;;;;;5028852;28;19909;-70
2022/11/23 03:43:35;;;;;;;;;;;;;;;;;;5029651;28;19910;-69
2022/11/23 03:46:01;;;;;;;;;;;;;;;;;;5029571;28;19955;-70
2022/11/23 03:48:26;;;;;;;;;;;;;;;;;;5029505;28;20376;-70
2022/11/23 03:50:52;;;;;;;;;;;;;;;;;;5028917;28;19963;-68
2022/11/23 03:53:18;;;;;;;;;;;;;;;;;;5028117;28;20374;-68
2022/11/23 03:55:44;;;;;;;;;;;;;;;;;;5029690;28;19913;-69
2022/11/23 03:58:10;;;;;;;;;;;;;;;;;;5028718;28;19924;-68
2022/11/23 04:00:36;;;;;;;;;;;;;;;;;;5029286;28;19920;-69
2022/11/23 04:03:02;;;;;;;;;;;;;;;;;;5029093;28;19919;-69
2022/11/23 04:05:28;;;;;;;;;;;;;;;;;;5028582;28;19920;-67
2022/11/23 04:07:54;;;;;;;;;;;;;;;;;;5031785;28;19920;-67
2022/11/23 04:10:19;;;;;;;;;;;;;;;;;;5031974;28;19924;-67
2022/11/23 04:12:45;;;;;;;;;;;;;;;;;;5032721;28;20004;-68
2022/11/23 04:15:11;;;;;;;;;;;;;;;;;;5032972;28;19909;-68
2022/11/23 04:17:37;;;;;;;;;;;;;;;;;;5032280;28;19971;-69
2022/11/23 04:20:03;;;;;;;;;;;;;;;;;;5032261;28;20456;-68
2022/11/23 04:22:29;;;;;;;;;;;;;;;;;;5031935;28;19921;-68
2022/11/23 04:24:55;;;;;;;;;;;;;;;;;;5032668;28;19917;-68
2022/11/23 04:27:20;;;;;;;;;;;;;;;;;;5035631;28;20004;-70
2022/11/23 04:29:46;;;;;;;;;;;;;;;;;;5032680;28;20341;-71
2022/11/23 04:32:12;;;;;;;;;;;;;;;;;;5031990;28;19921;-68
2022/11/23 04:34:38;;;;;;;;;;;;;;;;;;5032086;28;19916;-69
2022/11/23 04:37:04;;;;;;;;;;;;;;;;;;5032571;28;19913;-69
2022/11/23 04:39:30;;;;;;;;;;;;;;;;;;5031623;28;19978;-69
2022/11/23 04:41:56;;;;;;;;;;;;;;;;;;5032609;28;19943;-69
2022/11/23 04:44:22;;;;;;;;;;;;;;;;;;5032154;28;20274;-68
2022/11/23 04:46:49;;;;;;;;;;;;;;;;;;5031621;28;19913;-69
2022/11/23 04:49:15;;;;;;;;;;;;;;;;;;5032362;28;19909;-69
2022/11/23 04:51:40;;;;;;;;;;;;;;;;;;5030300;28;19919;-69
2022/11/23 04:54:06;;;;;;;;;;;;;;;;;;5031275;28;19909;-68
2022/11/23 04:56:32;;;;;;;;;;;;;;;;;;5031826;28;19958;-69
2022/11/23 04:58:58;;;;;;;;;;;;;;;;;;5031775;28;19921;-69
2022/11/23 05:01:24;;;;;;;;;;;;;;;;;;5031530;28;19932;-69
2022/11/23 05:03:50;;;;;;;;;;;;;;;;;;5026227;28;20001;-68
2022/11/23 05:06:16;;;;;;;;;;;;;;;;;;5031396;28;20380;-69
2022/11/23 05:08:41;;;;;;;;;;;;;;;;;;5031460;28;19914;-69
2022/11/23 05:11:07;;;;;;;;;;;;;;;;;;5031849;28;20697;-69
2022/11/23 05:13:33;;;;;;;;;;;;;;;;;;5031403;28;19913;-68
2022/11/23 05:15:59;;;;;;;;;;;;;;;;;;5031151;28;20285;-69
2022/11/23 05:18:25;;;;;;;;;;;;;;;;;;5030819;28;19988;-69
2022/11/23 05:20:51;;;;;;;;;;;;;;;;;;5031564;28;19916;-68
2022/11/23 05:23:17;;;;;;;;;;;;;;;;;;5030783;28;20372;-69
2022/11/23 05:25:43;;;;;;;;;;;;;;;;;;5031404;28;19913;-69
2022/11/23 05:28:08;;;;;;;;;;;;;;;;;;5032483;28;19913;-69
2022/11/23 05:30:34;;;;;;;;;;;;;;;;;;5031098;28;19917;-69
2022/11/23 05:33:00;;;;;;;;;;;;;;;;;;5030713;28;19909;-68
2022/11/23 05:35:26;;;;;;;;;;;;;;;;;;5030995;28;19913;-69
2022/11/23 05:37:52;;;;;;;;;;;;;;;;;;5030854;28;19917;-70
2022/11/23 05:40:18;;;;;;;;;;;;;;;;;;5031161;28;19913;-69
2022/11/23 05:42:44;;;;;;;;;;;;;;;;;;5030961;28;19913;-68
2022/11/23 05:45:10;;;;;;;;;;;;;;;;;;5030898;28;20274;-66
2022/11/23 05:47:36;;;;;;;;;;;;;;;;;;5030289;28;19917;-69
2022/11/23 05:50:02;;;;;;;;;;;;;;;;;;5030782;28;19916;-69
2022/11/23 05:52:27;;;;;;;;;;;;;;;;;;5031059;28;19916;-69
2022/11/23 05:54:53;;;;;;;;;;;;;;;;;;5030606;28;19913;-68
2022/11/23 05:57:21;;;;;;;;;;;;;;;;;;5030379;28;20301;-69
2022/11/23 05:59:47;;;;;;;;;;;;;;;;;;5030804;28;19920;-69
2022/11/23 06:02:13;;;;;;;;;;;;;;;;;;5030294;28;19909;-70
2022/11/23 06:04:38;;;;;;;;;;;;;;;;;;5031084;28;19909;-69
2022/11/23 06:07:04;;;;;;;;;;;;;;;;;;5030472;28;19949;-69
2022/11/23 06:09:30;;;;;;;;;;;;;;;;;;5030901;28;19956;-69
2022/11/23 06:11:56;;;;;;;;;;;;;;;;;;5030641;28;19920;-70
2022/11/23 06:14:22;;;;;;;;;;;;;;;;;;5030194;28;19963;-70
2022/11/23 06:16:48;;;;;;;;;;;;;;;;;;5029930;28;19917;-69
2022/11/23 06:19:14;;;;;;;;;;;;;;;;;;5030208;28;20008;-67
2022/11/23 06:21:40;;;;;;;;;;;;;;;;;;5030125;28;19963;-68
2022/11/23 06:24:06;;;;;;;;;;;;;;;;;;5029937;28;19929;-69
2022/11/23 06:26:32;;;;;;;;;;;;;;;;;;5030910;28;20047;-68
2022/11/23 06:28:57;;;;;;;;;;;;;;;;;;5030912;28;19920;-68
2022/11/23 06:31:23;;;;;;;;;;;;;;;;;;5029343;28;20000;-67
2022/11/23 06:33:49;;;;;;;;;;;;;;;;;;5030249;28;19909;-68
2022/11/23 06:36:15;;;;;;;;;;;;;;;;;;5029621;28;19909;-68
2022/11/23 06:38:41;;;;;;;;;;;;;;;;;;5029794;28;19921;-70
2022/11/23 06:41:07;;;;;;;;;;;;;;;;;;5030193;28;19917;-68
2022/11/23 06:43:33;;;;;;;;;;;;;;;;;;5029644;28;19913;-68
2022/11/23 06:45:59;;;;;;;;;;;;;;;;;;5029014;28;19924;-70
2022/11/23 06:48:25;;;;;;;;;;;;;;;;;;5028355;28;20427;-71
2022/11/23 06:50:51;;;;;;;;;;;;;;;;;;5029163;28;19916;-70
2022/11/23 06:53:16;;;;;;;;;;;;;;;;;;5029945;28;19924;-69
2022/11/23 06:55:42;;;;;;;;;;;;;;;;;;5030099;28;20384;-69
2022/11/23 06:58:08;;;;;;;;;;;;;;;;;;5029107;28;19964;-63
2022/11/23 07:00:34;;;;;;;;;;;;;;;;;;5029725;28;19921;-64
2022/11/23 07:03:00;;;;;;;;;;;;;;;;;;5029383;28;20226;-64
2022/11/23 07:05:26;;;;;;;;;;;;;;;;;;5029246;28;20455;-63
2022/11/23 07:07:52;;;;;;;;;;;;;;;;;;5029482;28;19917;-63
2022/11/23 07:10:18;;;;;;;;;;;;;;;;;;5029508;28;19916;-64
2022/11/23 07:12:44;;;;;;;;;;;;;;;;;;5028721;28;19917;-64
2022/11/23 07:15:10;;;;;;;;;;;;;;;;;;5029131;28;19959;-63
2022/11/23 07:17:36;;;;;;;;;;;;;;;;;;5028388;28;20458;-64
2022/11/23 07:20:02;;;;;;;;;;;;;;;;;;5028582;28;19928;-63
2022/11/23 07:22:27;;;;;;;;;;;;;;;;;;5028615;28;19948;-63
2022/11/23 07:24:53;;;;;;;;;;;;;;;;;;5029278;28;19936;-65
2022/11/23 07:27:19;;;;;;;;;;;;;;;;;;5028660;28;20282;-63
2022/11/23 07:29:45;;;;;;;;;;;;;;;;;;5028650;28;19913;-65
2022/11/23 07:32:13;;;;;;;;;;;;;;;;;;5028769;28;19909;-63
2022/11/23 07:34:39;;;;;;;;;;;;;;;;;;5028915;28;19975;-63
2022/11/23 07:37:05;;;;;;;;;;;;;;;;;;5029049;28;19917;-63
2022/11/23 07:39:31;;;;;;;;;;;;;;;;;;5029350;28;20373;-62
2022/11/23 07:41:57;;;;;;;;;;;;;;;;;;5029674;28;19920;-63
2022/11/23 07:44:23;;;;;;;;;;;;;;;;;;5032504;28;19928;-64
2022/11/23 07:46:50;;;;;;;;;;;;;;;;;;5032731;28;20031;-63
2022/11/23 07:49:16;;;;;;;;;;;;;;;;;;5032848;28;19917;-61
2022/11/23 07:51:42;;;;;;;;;;;;;;;;;;5032743;28;19916;-63
2022/11/23 07:54:08;;;;;;;;;;;;;;;;;;5032946;28;20354;-64
2022/11/23 07:56:33;;;;;;;;;;;;;;;;;;5033145;28;19909;-63
2022/11/23 07:58:59;;;;;;;;;;;;;;;;;;5032894;28;19921;-63
2022/11/23 08:01:25;;;;;;;;;;;;;;;;;;5032602;28;19913;-63
2022/11/23 08:03:51;;;;;;;;;;;;;;;;;;5033089;28;19909;-63
2022/11/23 08:06:17;;;;;;;;;;;;;;;;;;5032599;28;20293;-63
2022/11/23 08:08:43;;;;;;;;;;;;;;;;;;5032701;28;19909;-63
2022/11/23 08:11:09;;;;;;;;;;;;;;;;;;5032039;28;20388;-66
2022/11/23 08:13:38;;;;;;;;;;;;;;;;;;5032971;28;19920;-65
2022/11/23 08:16:04;;;;;;;;;;;;;;;;;;5032584;28;19909;-65
2022/11/23 08:18:30;;;;;;;;;;;;;;;;;;5032810;28;19923;-65
2022/11/23 08:20:56;;;;;;;;;;;;;;;;;;5032538;28;19992;-66
2022/11/23 08:23:22;;;;;;;;;;;;;;;;;;5032499;28;20492;-66
2022/11/23 08:25:48;;;;;;;;;;;;;;;;;;5032147;28;19920;-66
2022/11/23 08:28:14;;;;;;;;;;;;;;;;;;5033949;28;19913;-65
2022/11/23 08:30:40;;;;;;;;;;;;;;;;;;5032251;28;19992;-66
2022/11/23 08:33:06;;;;;;;;;;;;;;;;;;5032105;28;20028;-65
2022/11/23 08:35:32;;;;;;;;;;;;;;;;;;5032820;28;19914;-66
2022/11/23 08:37:58;;;;;;;;;;;;;;;;;;5031704;28;20373;-65
2022/11/23 08:40:24;;;;;;;;;;;;;;;;;;5031728;28;19913;-65
2022/11/23 08:42:50;;;;;;;;;;;;;;;;;;5032152;28;19952;-66
2022/11/23 08:45:15;;;;;;;;;;;;;;;;;;5032435;28;19909;-66
2022/11/23 08:47:41;;;;;;;;;;;;;;;;;;5031891;28;19975;-66
2022/11/23 08:50:07;;;;;;;;;;;;;;;;;;5032671;28;19959;-65
2022/11/23 08:52:33;;;;;;;;;;;;;;;;;;5031272;28;19913;-66
2022/11/23 08:55:00;;;;;;;;;;;;;;;;;;5028746;28;19920;-66
2022/11/23 08:57:26;;;;;;;;;;;;;;;;;;5031722;28;19909;-66
2022/11/23 08:59:52;;;;;;;;;;;;;;;;;;5031934;28;19916;-66
2022/11/23 09:02:17;;;;;;;;;;;;;;;;;;5031200;28;20025;-64
2022/11/23 09:04:43;;;;;;;;;;;;;;;;;;5030939;28;19958;-65
2022/11/23 09:07:09;;;;;;;;;;;;;;;;;;5031629;28;19916;-65
2022/11/23 09:09:35;;;;;;;;;;;;;;;;;;5030191;28;20013;-65
2022/11/23 09:12:01;;;;;;;;;;;;;;;;;;5031014;28;19917;-66
2022/11/23 09:14:27;;;;;;;;;;;;;;;;;;5030733;28;19910;-66
2022/11/23 09:16:53;;;;;;;;;;;;;;;;;;5030961;28;19909;-66
2022/11/23 09:19:19;;;;;;;;;;;;;;;;;;5031057;28;19917;-66
2022/11/23 09:21:45;;;;;;;;;;;;;;;;;;5031328;28;19948;-65
2022/11/23 09:24:11;;;;;;;;;;;;;;;;;;5030795;28;19960;-65
2022/11/23 09:26:37;;;;;;;;;;;;;;;;;;5031642;28;19944;-66
2022/11/23 09:29:03;;;;;;;;;;;;;;;;;;5030457;28;20380;-66
2022/11/23 09:31:28;;;;;;;;;;;;;;;;;;5030745;28;20000;-66
2022/11/23 09:33:54;;;;;;;;;;;;;;;;;;5030836;28;19913;-65
2022/11/23 09:36:21;;;;;;;;;;;;;;;;;;5030589;28;19917;-66
2022/11/23 09:38:47;;;;;;;;;;;;;;;;;;5030132;28;20452;-66
2022/11/23 09:41:13;;;;;;;;;;;;;;;;;;5030490;28;20024;-66
2022/11/23 09:43:39;;;;;;;;;;;;;;;;;;5030321;28;20011;-65
2022/11/23 09:46:05;;;;;;;;;;;;;;;;;;5030112;28;19909;-65
2022/11/23 09:48:31;;;;;;;;;;;;;;;;;;5030319;28;19914;-66
2022/11/23 09:50:57;;;;;;;;;;;;;;;;;;5029693;28;19913;-65
2022/11/23 09:53:23;;;;;;;;;;;;;;;;;;5029738;28;20020;-65
2022/11/23 09:55:49;;;;;;;;;;;;;;;;;;5030605;28;19909;-66
2022/11/23 09:58:17;;;;;;;;;;;;;;;;;;5028809;28;20213;-66
2022/11/23 10:00:43;;;;;;;;;;;;;;;;;;5030045;28;20600;-66
2022/11/23 10:03:09;;;;;;;;;;;;;;;;;;5030205;28;19909;-65
2022/11/23 10:05:35;;;;;;;;;;;;;;;;;;5029037;28;19913;-65
2022/11/23 10:08:01;;;;;;;;;;;;;;;;;;5029737;28;19913;-66
2022/11/23 10:10:27;;;;;;;;;;;;;;;;;;5030330;28;19956;-66
2022/11/23 10:12:53;;;;;;;;;;;;;;;;;;5029446;28;19952;-67
2022/11/23 10:15:19;;;;;;;;;;;;;;;;;;5029948;28;19914;-65
2022/11/23 10:17:47;;;;;;;;;;;;;;;;;;5029997;28;20344;-65
2022/11/23 10:20:13;;;;;;;;;;;;;;;;;;5029685;28;20353;-66
2022/11/23 10:22:39;;;;;;;;;;;;;;;;;;5029375;28;20020;-65
2022/11/23 10:25:04;;;;;;;;;;;;;;;;;;5029846;28;19913;-66
2022/11/23 10:27:30;;;;;;;;;;;;;;;;;;5030045;28;19913;-66
2022/11/23 10:29:56;;;;;;;;;;;;;;;;;;5029911;28;20019;-65
2022/11/23 10:32:22;;;;;;;;;;;;;;;;;;5030413;28;19913;-66
2022/11/23 10:34:48;;;;;;;;;;;;;;;;;;5029626;28;19909;-65
2022/11/23 10:37:14;;;;;;;;;;;;;;;;;;5029225;28;19947;-65
2022/11/23 10:39:40;;;;;;;;;;;;;;;;;;5029573;28;19960;-66
2022/11/23 10:42:06;;;;;;;;;;;;;;;;;;5029929;28;19917;-66
2022/11/23 10:44:32;;;;;;;;;;;;;;;;;;5029273;28;19937;-65
2022/11/23 10:46:57;;;;;;;;;;;;;;;;;;5029514;28;19917;-66
2022/11/23 10:49:23;;;;;;;;;;;;;;;;;;5029298;28;19910;-65
2022/11/23 10:51:49;;;;;;;;;;;;;;;;;;5029391;28;19955;-66
2022/11/23 10:54:15;;;;;;;;;;;;;;;;;;5029451;28;19921;-66
2022/11/23 10:56:41;;;;;;;;;;;;;;;;;;5029712;28;19917;-63
2022/11/23 10:59:07;;;;;;;;;;;;;;;;;;5028987;28;19968;-66
2022/11/23 11:01:33;;;;;;;;;;;;;;;;;;5029835;28;19920;-63
2022/11/23 11:03:59;;;;;;;;;;;;;;;;;;5028399;28;19917;-66
2022/11/23 11:06:25;;;;;;;;;;;;;;;;;;5028165;28;20007;-68
2022/11/23 11:08:50;;;;;;;;;;;;;;;;;;5029252;28;19999;-67
2022/11/23 11:11:16;;;;;;;;;;;;;;;;;;5018803;28;19924;-67
2022/11/23 11:13:42;;;;;;;;;;;;;;;;;;5022188;28;20016;-67
2022/11/23 11:16:08;;;;;;;;;;;;;;;;;;5024229;28;19960;-68
2022/11/23 11:18:34;;;;;;;;;;;;;;;;;;5025249;28;19925;-68
2022/11/23 11:21:00;;;;;;;;;;;;;;;;;;5025392;28;19913;-68
2022/11/23 11:23:26;;;;;;;;;;;;;;;;;;5025843;28;19922;-67
2022/11/23 11:25:52;;;;;;;;;;;;;;;;;;5026968;28;19920;-68
2022/11/23 11:28:18;;;;;;;;;;;;;;;;;;5025734;28;20407;-68
2022/11/23 11:30:44;;;;;;;;;;;;;;;;;;5027158;28;19918;-68
2022/11/23 11:33:10;;;;;;;;;;;;;;;;;;5029909;28;19940;-68
2022/11/23 11:35:36;;;;;;;;;;;;;;;;;;5026154;28;19948;-67
2022/11/23 11:38:02;;;;;;;;;;;;;;;;;;5026426;28;19921;-67
2022/11/23 11:40:28;;;;;;;;;;;;;;;;;;5027498;28;19917;-67
2022/11/23 11:42:54;;;;;;;;;;;;;;;;;;5022902;28;19917;-67
2022/11/23 11:45:20;;;;;;;;;;;;;;;;;;5028754;28;20021;-67
2022/11/23 11:47:46;;;;;;;;;;;;;;;;;;5023072;28;19989;-67
2022/11/23 11:50:12;;;;;;;;;;;;;;;;;;5024875;28;19914;-67
2022/11/23 11:52:38;;;;;;;;;;;;;;;;;;5024458;28;20004;-67
2022/11/23 11:55:04;;;;;;;;;;;;;;;;;;5027196;28;19917;-67
2022/11/23 11:57:29;;;;;;;;;;;;;;;;;;5022963;28;20737;-64
2022/11/23 11:59:56;;;;;;;;;;;;;;;;;;5026490;28;19971;-64
2022/11/23 12:02:22;;;;;;;;;;;;;;;;;;5025734;28;19955;-65
2022/11/23 12:04:48;;;;;;;;;;;;;;;;;;5026557;28;19949;-65
2022/11/23 12:07:14;;;;;;;;;;;;;;;;;;5025193;28;19917;-64
2022/11/23 12:09:40;;;;;;;;;;;;;;;;;;5024953;28;19917;-64
2022/11/23 12:12:05;;;;;;;;;;;;;;;;;;5026212;28;20314;-65
2022/11/23 12:14:31;;;;;;;;;;;;;;;;;;5021853;28;19968;-65
2022/11/23 12:16:57;;;;;;;;;;;;;;;;;;5026258;28;20013;-64
2022/11/23 12:19:23;;;;;;;;;;;;;;;;;;5022172;28;19932;-65
2022/11/23 12:21:49;;;;;;;;;;;;;;;;;;5026708;28;19956;-65
2022/11/23 12:24:15;;;;;;;;;;;;;;;;;;5024883;28;19926;-64
2022/11/23 12:26:41;;;;;;;;;;;;;;;;;;5027496;28;20309;-65
2022/11/23 12:29:06;;;;;;;;;;;;;;;;;;5020134;28;20055;-63
2022/11/23 12:31:37;;;;;;;;;;;;;;;;;;5026173;28;20298;-62
2022/11/23 12:34:03;;;;;;;;;;;;;;;;;;5025217;28;19928;-65
2022/11/23 12:36:29;;;;;;;;;;;;;;;;;;5022928;28;19918;-64
2022/11/23 12:38:55;;;;;;;;;;;;;;;;;;5023925;28;20023;-64
2022/11/23 12:41:21;;;;;;;;;;;;;;;;;;5028132;28;19935;-64
2022/11/23 12:43:47;;;;;;;;;;;;;;;;;;5024045;28;19913;-65
2022/11/23 12:46:13;;;;;;;;;;;;;;;;;;5017797;28;19924;-64
2022/11/23 12:48:39;;;;;;;;;;;;;;;;;;5024918;28;19917;-65
2022/11/23 12:51:05;;;;;;;;;;;;;;;;;;5022068;28;20328;-65
2022/11/23 12:53:30;;;;;;;;;;;;;;;;;;5025259;28;19920;-66
2022/11/23 12:55:56;;;;;;;;;;;;;;;;;;5026360;28;21195;-65
2022/11/23 12:58:22;;;;;;;;;;;;;;;;;;5026331;28;19929;-64
2022/11/23 13:00:48;;;;;;;;;;;;;;;;;;5020942;28;20333;-65
2022/11/23 13:03:14;;;;;;;;;;;;;;;;;;5026940;28;19917;-65
2022/11/23 13:05:40;;;;;;;;;;;;;;;;;;5024060;28;19921;-62
2022/11/23 13:08:06;;;;;;;;;;;;;;;;;;5024831;28;19917;-65
2022/11/23 13:10:32;;;;;;;;;;;;;;;;;;5021804;28;20001;-65
2022/11/23 13:12:57;;;;;;;;;;;;;;;;;;5026342;28;19921;-65
2022/11/23 13:15:23;;;;;;;;;;;;;;;;;;5020865;28;19917;-65
2022/11/23 13:17:49;;;;;;;;;;;;;;;;;;5025671;28;20011;-65
2022/11/23 13:20:15;;;;;;;;;;;;;;;;;;5026482;28;19917;-66
2022/11/23 13:22:44;;;;;;;;;;;;;;;;;;5022026;28;19979;-66
2022/11/23 13:25:10;;;;;;;;;;;;;;;;;;5024173;28;19913;-65
2022/11/23 13:27:36;;;;;;;;;;;;;;;;;;5023405;28;19924;-65
2022/11/23 13:30:02;;;;;;;;;;;;;;;;;;5024914;28;20431;-65
2022/11/23 13:32:27;;;;;;;;;;;;;;;;;;5019676;28;19917;-65
2022/11/23 13:34:53;;;;;;;;;;;;;;;;;;5025168;28;20499;-66
2022/11/23 13:37:23;;;;;;;;;;;;;;;;;;5021638;28;19913;-65
2022/11/23 13:39:49;;;;;;;;;;;;;;;;;;5025566;28;19932;-65
2022/11/23 13:42:15;;;;;;;;;;;;;;;;;;5023657;28;19919;-63
2022/11/23 13:44:41;;;;;;;;;;;;;;;;;;5025606;28;19925;-65
2022/11/23 13:47:07;;;;;;;;;;;;;;;;;;5020657;28;19924;-65
2022/11/23 13:49:33;;;;;;;;;;;;;;;;;;5025781;28;19917;-66
2022/11/23 13:51:59;;;;;;;;;;;;;;;;;;5022535;28;19990;-63
2022/11/23 13:54:25;;;;;;;;;;;;;;;;;;5022300;28;19955;-65
2022/11/23 13:56:51;;;;;;;;;;;;;;;;;;5023459;28;20340;-66
2022/11/23 13:59:17;;;;;;;;;;;;;;;;;;5023343;28;19918;-66
2022/11/23 14:01:43;;;;;;;;;;;;;;;;;;5023196;28;19917;-65
2022/11/23 14:04:08;;;;;;;;;;;;;;;;;;5020538;28;19913;-65
2022/11/23 14:06:34;;;;;;;;;;;;;;;;;;5023467;28;19925;-66
2022/11/23 14:09:00;;;;;;;;;;;;;;;;;;5021261;28;20834;-65
2022/11/23 14:11:26;;;;;;;;;;;;;;;;;;5023770;28;19924;-66
2022/11/23 14:13:52;;;;;;;;;;;;;;;;;;5021516;28;19920;-66
2022/11/23 14:16:18;;;;;;;;;;;;;;;;;;5024474;28;20456;-66
2022/11/23 14:18:44;;;;;;;;;;;;;;;;;;5020665;28;19925;-65
2022/11/23 14:21:10;;;;;;;;;;;;;;;;;;5023006;28;19917;-67
2022/11/23 14:23:36;;;;;;;;;;;;;;;;;;5019464;28;19936;-67
2022/11/23 14:26:01;;;;;;;;;;;;;;;;;;5023240;28;19955;-65
2022/11/23 14:28:27;;;;;;;;;;;;;;;;;;5022180;28;19917;-66
2022/11/23 14:30:53;;;;;;;;;;;;;;;;;;5025218;28;19914;-66
2022/11/23 14:33:19;;;;;;;;;;;;;;;;;;5021454;28;19921;-67
2022/11/23 14:35:45;;;;;;;;;;;;;;;;;;5024197;28;19917;-66
2022/11/23 14:38:11;;;;;;;;;;;;;;;;;;5025433;28;19921;-67
2022/11/23 14:40:37;;;;;;;;;;;;;;;;;;5021645;28;20293;-67
2022/11/23 14:43:03;;;;;;;;;;;;;;;;;;5021590;28;19925;-65
2022/11/23 14:45:29;;;;;;;;;;;;;;;;;;5023398;28;19920;-66
2022/11/23 14:47:54;;;;;;;;;;;;;;;;;;5023451;28;20496;-67
2022/11/23 14:50:21;;;;;;;;;;;;;;;;;;5018666;28;19917;-66
2022/11/23 14:52:47;;;;;;;;;;;;;;;;;;5022692;28;19924;-67
2022/11/23 14:55:12;;;;;;;;;;;;;;;;;;5024062;28;20282;-66
2022/11/23 14:57:38;;;;;;;;;;;;;;;;;;5023026;28;19920;-66
2022/11/23 15:00:04;;;;;;;;;;;;;;;;;;5020682;28;19966;-65
2022/11/23 15:02:30;;;;;;;;;;;;;;;;;;5024753;28;19913;-66
2022/11/23 15:04:56;;;;;;;;;;;;;;;;;;5022269;28;20275;-67
2022/11/23 15:07:22;;;;;;;;;;;;;;;;;;5025031;28;19924;-66
2022/11/23 15:09:48;;;;;;;;;;;;;;;;;;5023289;28;20329;-66
2022/11/23 15:12:14;;;;;;;;;;;;;;;;;;5021792;28;19984;-66
2022/11/23 15:14:40;;;;;;;;;;;;;;;;;;5021226;28;20003;-66
2022/11/23 15:17:05;;;;;;;;;;;;;;;;;;5024326;28;20263;-65
2022/11/23 15:19:31;;;;;;;;;;;;;;;;;;5020763;28;19956;-66
2022/11/23 15:21:57;;;;;;;;;;;;;;;;;;5021274;28;20302;-66
2022/11/23 15:24:23;;;;;;;;;;;;;;;;;;5023611;28;19979;-65
2022/11/23 15:26:49;;;;;;;;;;;;;;;;;;5021983;28;19921;-65
2022/11/23 15:29:15;;;;;;;;;;;;;;;;;;5022108;28;19983;-66
2022/11/23 15:31:41;;;;;;;;;;;;;;;;;;5023975;28;19917;-66
2022/11/23 15:34:07;;;;;;;;;;;;;;;;;;5023909;28;19917;-66
2022/11/23 15:36:33;;;;;;;;;;;;;;;;;;5017950;28;20764;-67
2022/11/23 15:38:59;;;;;;;;;;;;;;;;;;5024773;28;20012;-64
2022/11/23 15:41:25;;;;;;;;;;;;;;;;;;5021321;28;20344;-66
2022/11/23 15:43:51;;;;;;;;;;;;;;;;;;5023908;28;20362;-65
2022/11/23 15:46:17;;;;;;;;;;;;;;;;;;5018166;28;19979;-66
2022/11/23 15:48:42;;;;;;;;;;;;;;;;;;5025541;28;19917;-65
2022/11/23 15:51:08;;;;;;;;;;;;;;;;;;5019168;28;19925;-65
2022/11/23 15:53:35;;;;;;;;;;;;;;;;;;5024519;28;20012;-66
2022/11/23 15:56:01;;;;;;;;;;;;;;;;;;5022227;28;19941;-66
2022/11/23 15:58:27;;;;;;;;;;;;;;;;;;5021418;28;19975;-66
2022/11/23 16:00:52;;;;;;;;;;;;;;;;;;5021683;28;19913;-66
2022/11/23 16:03:18;;;;;;;;;;;;;;;;;;5026797;28;19928;-63
2022/11/23 16:05:44;;;;;;;;;;;;;;;;;;5026964;28;20063;-64
2022/11/23 16:08:10;;;;;;;;;;;;;;;;;;5028461;28;19928;-65
2022/11/23 16:10:36;;;;;;;;;;;;;;;;;;5026471;28;19928;-65
2022/11/23 16:13:02;;;;;;;;;;;;;;;;;;5028525;28;20047;-65
2022/11/23 16:15:29;;;;;;;;;;;;;;;;;;5026076;28;19913;-65
2022/11/23 16:17:55;;;;;;;;;;;;;;;;;;5027841;28;19925;-66
2022/11/23 16:20:21;;;;;;;;;;;;;;;;;;5028200;28;19924;-65
2022/11/23 16:22:47;;;;;;;;;;;;;;;;;;5022127;28;19917;-65
2022/11/23 16:25:12;;;;;;;;;;;;;;;;;;5027418;28;20285;-66
2022/11/23 16:27:38;;;;;;;;;;;;;;;;;;5024315;28;20006;-67
2022/11/23 16:30:04;;;;;;;;;;;;;;;;;;5026509;28;19913;-65
2022/11/23 16:32:30;;;;;;;;;;;;;;;;;;5023116;28;19917;-66
2022/11/23 16:34:56;;;;;;;;;;;;;;;;;;5027716;28;20766;-66
2022/11/23 16:37:24;;;;;;;;;;;;;;;;;;5023516;28;19917;-66